Time;durP1;ratioP1;P1;durP2;ratioP2;P2;SDS_P1;SDS_P2;PMS_P1;PMS_P2;Temp;Humidity;BMP_temperature;BMP_pressure;BME280_temperature;BME280_humidity;BME280_pressure;Samples;Min_cycle;Max_cycle;Signal;HPM_P1;HPM_P2
2023/03/05 00:00:46;;;;;;;35.42;19.52;;;7.40;52.30;;;;;;5037104;28;20025;-73
2023/03/05 00:03:12;;;;;;;30.60;17.65;;;7.30;52.20;;;;;;5055081;28;20382;-73
2023/03/05 00:05:38;;;;;;;29.65;16.40;;;7.30;52.20;;;;;;5054595;28;20112;-73
2023/03/05 00:08:04;;;;;;;30.98;18.13;;;7.30;52.20;;;;;;5037039;28;20025;-73
2023/03/05 00:10:29;;;;;;;34.72;17.65;;;7.30;52.30;;;;;;5054970;28;20021;-74
2023/03/05 00:12:55;;;;;;;27.08;15.57;;;7.30;52.30;;;;;;5054896;28;20478;-73
2023/03/05 00:15:21;;;;;;;29.10;16.15;;;7.30;52.30;;;;;;5037173;28;20086;-73
2023/03/05 00:17:47;;;;;;;25.48;15.90;;;7.30;52.20;;;;;;5055043;28;20024;-73
2023/03/05 00:20:13;;;;;;;30.00;16.25;;;7.40;52.20;;;;;;5055189;28;20104;-73
2023/03/05 00:22:38;;;;;;;33.42;18.23;;;7.40;52.20;;;;;;5036662;28;20029;-74
2023/03/05 00:25:05;;;;;;;26.05;16.33;;;7.40;52.30;;;;;;5054689;28;20147;-74
2023/03/05 00:27:31;;;;;;;27.83;16.40;;;7.40;52.20;;;;;;5034694;28;20056;-73
2023/03/05 00:29:57;;;;;;;28.20;17.30;;;7.40;52.20;;;;;;5034629;28;20479;-73
2023/03/05 00:32:22;;;;;;;34.70;18.42;;;7.40;52.20;;;;;;5034771;28;20049;-73
2023/03/05 00:34:48;;;;;;;27.45;16.85;;;7.40;52.30;;;;;;5034236;28;20135;-74
2023/03/05 00:37:15;;;;;;;31.45;18.23;;;7.40;52.40;;;;;;5016738;28;20486;-74
2023/03/05 00:39:41;;;;;;;32.08;18.67;;;7.40;52.30;;;;;;5034355;28;20411;-73
2023/03/05 00:42:08;;;;;;;31.35;18.08;;;7.40;52.40;;;;;;5016664;28;20028;-73
2023/03/05 00:44:34;;;;;;;31.05;18.27;;;7.50;52.30;;;;;;5034276;28;20022;-73
2023/03/05 00:47:00;;;;;;;29.42;17.42;;;7.50;52.30;;;;;;5034429;28;20025;-74
2023/03/05 00:49:25;;;;;;;28.55;17.73;;;7.50;52.30;;;;;;5034241;28;20021;-73
2023/03/05 00:51:51;;;;;;;34.75;19.98;;;7.50;52.40;;;;;;5034134;28;20022;-73
2023/03/05 00:54:17;;;;;;;33.67;20.65;;;7.50;52.50;;;;;;5034218;28;20028;-73
2023/03/05 00:56:43;;;;;;;32.83;19.63;;;7.50;52.50;;;;;;5034102;28;20029;-73
2023/03/05 00:59:09;;;;;;;30.83;18.10;;;7.50;52.70;;;;;;5034072;28;20105;-73
2023/03/05 01:01:35;;;;;;;40.80;20.83;;;7.50;52.80;;;;;;5033922;28;20100;-74
2023/03/05 01:04:01;;;;;;;36.88;20.95;;;7.50;52.90;;;;;;5032829;28;20021;-74
2023/03/05 01:06:28;;;;;;;33.47;21.30;;;7.40;53.00;;;;;;5033557;28;20029;-73
2023/03/05 01:08:55;;;;;;;33.13;19.38;;;7.40;53.10;;;;;;5033882;28;20025;-73
2023/03/05 01:11:21;;;;;;;33.88;20.33;;;7.40;53.00;;;;;;5033863;28;20017;-73
2023/03/05 01:13:47;;;;;;;39.58;20.08;;;7.40;53.10;;;;;;5033984;28;20026;-73
2023/03/05 01:16:13;;;;;;;34.60;19.65;;;7.40;53.20;;;;;;5033743;28;20387;-74
2023/03/05 01:18:39;;;;;;;33.63;19.60;;;7.40;53.20;;;;;;5028020;28;20034;-73
2023/03/05 01:21:05;;;;;;;39.10;22.23;;;7.40;53.10;;;;;;5015953;28;20025;-73
2023/03/05 01:23:33;;;;;;;33.67;19.80;;;7.40;53.20;;;;;;5033525;28;20494;-73
2023/03/05 01:25:59;;;;;;;33.20;20.08;;;7.40;53.10;;;;;;5033522;28;20049;-73
2023/03/05 01:28:25;;;;;;;33.95;20.40;;;7.40;53.10;;;;;;5034135;28;20022;-74
2023/03/05 01:30:51;;;;;;;36.22;18.75;;;7.40;53.20;;;;;;5034143;28;20052;-74
2023/03/05 01:33:17;;;;;;;41.38;22.05;;;7.40;53.20;;;;;;5016042;28;20486;-74
2023/03/05 01:35:46;;;;;;;36.63;21.00;;;7.40;53.50;;;;;;5033957;28;20475;-73
2023/03/05 01:38:12;;;;;;;36.50;20.10;;;7.30;53.60;;;;;;5016226;28;20470;-73
2023/03/05 01:40:38;;;;;;;34.83;21.00;;;7.30;53.80;;;;;;5033444;28;20036;-74
2023/03/05 01:43:09;;;;;;;37.83;20.23;;;7.30;53.90;;;;;;5015655;28;20025;-74
2023/03/05 01:45:35;;;;;;;38.42;22.27;;;7.30;54.20;;;;;;5033429;28;20029;-73
2023/03/05 01:48:01;;;;;;;36.15;22.40;;;7.30;54.30;;;;;;5033304;28;20028;-74
2023/03/05 01:50:27;;;;;;;37.15;21.85;;;7.30;54.60;;;;;;5015640;28;20033;-73
2023/03/05 01:53:06;;;;;;;38.35;21.50;;;7.20;54.70;;;;;;5033309;28;20079;-73
2023/03/05 01:55:36;;;;;;;33.13;19.67;;;7.20;54.70;;;;;;5033290;28;20032;-73
2023/03/05 01:58:07;;;;;;;45.25;22.55;;;7.20;54.80;;;;;;5033174;28;20395;-73
2023/03/05 02:00:45;;;;;;;41.90;23.10;;;7.20;55.10;;;;;;5033147;28;20498;-74
2023/03/05 02:03:12;;;;;;;32.92;20.02;;;7.10;55.30;;;;;;5032767;28;20029;-74
2023/03/05 02:05:42;;;;;;;34.35;20.83;;;7.10;55.30;;;;;;5032856;28;20508;-73
2023/03/05 02:08:13;;;;;;;35.15;21.02;;;7.00;55.40;;;;;;5033085;28;20032;-73
2023/03/05 02:10:45;;;;;;;35.25;20.73;;;7.00;55.60;;;;;;5033122;28;20394;-73
2023/03/05 02:13:18;;;;;;;35.13;21.10;;;7.00;55.80;;;;;;5033037;28;20048;-73
2023/03/05 02:15:46;;;;;;;40.43;23.80;;;7.00;55.90;;;;;;5033030;28;20483;-73
2023/03/05 02:18:12;;;;;;;38.08;23.90;;;6.90;55.90;;;;;;5018890;28;20279;-73
2023/03/05 02:20:52;;;;;;;40.70;20.38;;;6.90;56.00;;;;;;5036772;28;20022;-73
2023/03/05 02:23:21;;;;;;;35.80;21.08;;;6.90;56.10;;;;;;5036851;28;20020;-73
2023/03/05 02:25:47;;;;;;;42.92;23.98;;;6.90;56.00;;;;;;5031077;28;20133;-73
2023/03/05 02:28:23;;;;;;;41.35;23.50;;;6.90;55.90;;;;;;5017022;28;20502;-73
2023/03/05 02:30:49;;;;;;;40.58;22.83;;;6.90;55.90;;;;;;4999403;28;20100;-73
2023/03/05 02:33:16;;;;;;;37.75;22.30;;;7.00;55.80;;;;;;5016673;28;20436;-73
2023/03/05 02:35:42;;;;;;;33.17;21.13;;;7.00;55.90;;;;;;5017044;28;20033;-73
2023/03/05 02:38:09;;;;;;;37.83;21.60;;;7.00;55.90;;;;;;5016774;28;20041;-73
2023/03/05 02:40:35;;;;;;;45.10;23.45;;;7.00;55.90;;;;;;5016597;28;20538;-73
2023/03/05 02:43:01;;;;;;;38.97;22.08;;;6.90;55.80;;;;;;5016933;28;20026;-73
2023/03/05 02:45:27;;;;;;;40.20;22.30;;;6.90;55.80;;;;;;5016674;28;20018;-73
2023/03/05 02:47:54;;;;;;;39.90;23.73;;;6.90;55.90;;;;;;5016650;28;20049;-73
2023/03/05 02:50:20;;;;;;;34.58;20.27;;;6.90;55.90;;;;;;5016606;28;20025;-73
2023/03/05 02:52:46;;;;;;;35.53;21.25;;;6.90;56.00;;;;;;5011029;28;20018;-73
2023/03/05 02:55:12;;;;;;;34.20;20.80;;;6.90;56.00;;;;;;5016772;28;20092;-74
2023/03/05 02:57:38;;;;;;;38.17;21.92;;;6.90;55.90;;;;;;4998770;28;20434;-73
2023/03/05 03:00:04;;;;;;;37.63;22.42;;;7.00;55.90;;;;;;5016168;28;20030;-74
2023/03/05 03:02:30;;;;;;;33.65;20.92;;;7.00;55.90;;;;;;5016541;28;20057;-73
2023/03/05 03:04:56;;;;;;;36.08;21.35;;;7.00;55.80;;;;;;5016070;28;20062;-73
2023/03/05 03:07:22;;;;;;;37.97;21.58;;;7.00;55.80;;;;;;5015988;28;20026;-73
2023/03/05 03:09:48;;;;;;;37.08;20.83;;;7.00;55.80;;;;;;5016230;28;20026;-73
2023/03/05 03:12:14;;;;;;;39.30;22.27;;;7.00;55.80;;;;;;5016360;28;20379;-73
2023/03/05 03:14:41;;;;;;;41.63;22.52;;;7.00;55.80;;;;;;5016140;28;20088;-74
2023/03/05 03:17:09;;;;;;;39.40;21.90;;;7.00;55.70;;;;;;5016154;28;20045;-73
2023/03/05 03:19:36;;;;;;;35.47;19.73;;;6.90;55.70;;;;;;5015964;28;20495;-73
2023/03/05 03:22:02;;;;;;;36.28;21.00;;;7.00;55.80;;;;;;5015923;28;20097;-74
2023/03/05 03:24:30;;;;;;;32.33;19.40;;;7.00;55.80;;;;;;5015952;28;20483;-74
2023/03/05 03:26:55;;;;;;;36.08;20.05;;;7.00;55.80;;;;;;5045166;28;20053;-74
2023/03/05 03:29:21;;;;;;;30.38;18.45;;;7.00;55.80;;;;;;5055524;28;20108;-74
2023/03/05 03:31:47;;;;;;;32.28;19.23;;;7.10;55.80;;;;;;5055556;28;20072;-73
2023/03/05 03:34:14;;;;;;;36.28;20.17;;;7.10;55.70;;;;;;5055165;28;20049;-74
2023/03/05 03:36:41;;;;;;;37.92;21.17;;;7.10;55.70;;;;;;5055087;28;20106;-73
2023/03/05 03:39:10;;;;;;;33.85;20.10;;;7.10;55.80;;;;;;5055469;28;20092;-73
2023/03/05 03:41:40;;;;;;;33.30;20.50;;;7.10;55.80;;;;;;5055300;28;20437;-73
2023/03/05 03:44:07;;;;;;;36.72;21.10;;;7.10;55.90;;;;;;5055327;28;20429;-73
2023/03/05 03:46:34;;;;;;;51.10;21.45;;;7.10;56.00;;;;;;5055280;28;20028;-73
2023/03/05 03:49:00;;;;;;;45.97;20.95;;;7.10;56.00;;;;;;5037370;28;20043;-74
2023/03/05 03:51:26;;;;;;;28.15;18.75;;;7.10;56.10;;;;;;5055224;28;20029;-73
2023/03/05 03:53:52;;;;;;;33.53;19.55;;;7.10;56.00;;;;;;5037327;28;20072;-74
2023/03/05 03:56:18;;;;;;;32.15;20.13;;;7.10;56.00;;;;;;5055350;28;20091;-73
2023/03/05 03:58:44;;;;;;;31.45;19.63;;;7.10;55.90;;;;;;5055337;28;20425;-73
2023/03/05 04:01:10;;;;;;;32.63;19.42;;;7.10;55.70;;;;;;5054976;28;20033;-73
2023/03/05 04:03:35;;;;;;;37.03;20.85;;;7.10;55.70;;;;;;5055010;28;20475;-74
2023/03/05 04:06:02;;;;;;;31.98;20.05;;;7.10;56.30;;;;;;5054745;28;20103;-74
2023/03/05 04:08:27;;;;;;;38.13;21.30;;;7.10;55.70;;;;;;5054889;28;20067;-74
2023/03/05 04:10:53;;;;;;;35.47;21.45;;;7.10;55.80;;;;;;5054867;28;20067;-74
2023/03/05 04:13:19;;;;;;;36.67;20.23;;;7.10;55.80;;;;;;5054790;28;20111;-74
2023/03/05 04:15:45;;;;;;;35.25;20.67;;;7.10;55.80;;;;;;5054926;28;20100;-74
2023/03/05 04:18:10;;;;;;;48.40;22.23;;;7.10;55.70;;;;;;5054553;28;20056;-74
2023/03/05 04:20:36;;;;;;;32.50;19.42;;;7.10;55.80;;;;;;5054531;28;20544;-73
2023/03/05 04:23:02;;;;;;;35.10;19.88;;;7.10;55.80;;;;;;5054549;28;20155;-73
2023/03/05 04:25:28;;;;;;;32.95;19.10;;;7.10;55.80;;;;;;5051328;28;20045;-74
2023/03/05 04:27:54;;;;;;;40.17;21.45;;;7.10;55.80;;;;;;5034622;28;20030;-73
2023/03/05 04:30:19;;;;;;;31.75;18.67;;;7.10;55.80;;;;;;5033120;28;20087;-74
2023/03/05 04:32:45;;;;;;;32.08;19.70;;;7.10;55.80;;;;;;5034403;28;20028;-73
2023/03/05 04:35:11;;;;;;;33.35;19.73;;;7.10;55.90;;;;;;5034048;28;20108;-74
2023/03/05 04:37:38;;;;;;;36.30;20.73;;;7.10;56.00;;;;;;5034553;28;20088;-73
2023/03/05 04:40:04;;;;;;;40.60;21.75;;;7.10;56.20;;;;;;5033805;28;20030;-74
2023/03/05 04:42:30;;;;;;;35.40;19.67;;;7.10;56.40;;;;;;5034233;28;20026;-74
2023/03/05 04:44:56;;;;;;;36.72;22.05;;;7.10;56.40;;;;;;5034185;28;20025;-73
2023/03/05 04:47:22;;;;;;;37.45;20.98;;;7.00;56.60;;;;;;5032570;28;20026;-73
2023/03/05 04:49:47;;;;;;;41.45;22.30;;;7.00;56.80;;;;;;5032834;28;20096;-73
2023/03/05 04:52:14;;;;;;;36.65;20.20;;;7.00;56.80;;;;;;5033980;28;20048;-74
2023/03/05 04:54:40;;;;;;;39.60;21.33;;;6.90;56.90;;;;;;5028351;28;20037;-74
2023/03/05 04:57:07;;;;;;;41.10;20.92;;;6.90;57.00;;;;;;5033983;28;20366;-74
2023/03/05 04:59:33;;;;;;;37.50;21.20;;;6.90;57.10;;;;;;5016088;28;20025;-73
2023/03/05 05:01:59;;;;;;;32.83;19.83;;;6.90;57.30;;;;;;5034515;28;20100;-74
2023/03/05 05:04:24;;;;;;;34.63;19.35;;;6.90;57.30;;;;;;5033568;28;20151;-74
2023/03/05 05:06:54;;;;;;;40.65;21.33;;;6.90;57.20;;;;;;5016171;28;20467;-74
2023/03/05 05:09:20;;;;;;;34.17;21.02;;;6.90;57.30;;;;;;5033836;28;20030;-73
2023/03/05 05:11:46;;;;;;;36.55;21.90;;;6.90;57.20;;;;;;5034092;28;20028;-73
2023/03/05 05:14:12;;;;;;;31.83;19.60;;;7.00;57.20;;;;;;5033802;28;20021;-74
2023/03/05 05:16:38;;;;;;;37.65;20.73;;;7.00;57.20;;;;;;5033712;28;20021;-74
2023/03/05 05:19:03;;;;;;;32.47;18.42;;;7.00;57.20;;;;;;5031922;28;20360;-73
2023/03/05 05:21:29;;;;;;;29.92;18.38;;;7.00;57.20;;;;;;5017270;28;20100;-73
2023/03/05 05:23:55;;;;;;;39.60;21.35;;;7.00;57.20;;;;;;5013878;28;20407;-73
2023/03/05 05:26:21;;;;;;;36.88;20.95;;;7.00;57.30;;;;;;5022322;28;20053;-74
2023/03/05 05:28:47;;;;;;;40.67;20.95;;;7.00;57.30;;;;;;5028396;28;20100;-74
2023/03/05 05:31:15;;;;;;;36.42;20.55;;;7.00;57.30;;;;;;5035379;28;20022;-73
2023/03/05 05:33:41;;;;;;;36.67;21.23;;;7.00;57.20;;;;;;5038406;28;20087;-74
2023/03/05 05:36:09;;;;;;;31.65;18.77;;;7.00;57.20;;;;;;5033280;28;20026;-74
2023/03/05 05:38:35;;;;;;;36.72;19.95;;;7.00;57.20;;;;;;5033354;28;20040;-73
2023/03/05 05:41:03;;;;;;;39.35;20.98;;;7.00;57.20;;;;;;5033260;28;20475;-73
2023/03/05 05:43:29;;;;;;;32.83;18.92;;;7.10;57.20;;;;;;5033287;28;20052;-74
2023/03/05 05:46:05;;;;;;;36.30;20.33;;;7.00;57.20;;;;;;5033320;28;20025;-74
2023/03/05 05:48:32;;;;;;;42.28;23.20;;;7.00;57.20;;;;;;5033548;28;20509;-74
2023/03/05 05:50:59;;;;;;;33.05;20.13;;;7.00;57.00;;;;;;5032998;28;20026;-74
2023/03/05 05:53:25;;;;;;;43.05;21.83;;;7.00;57.70;;;;;;5033005;28;20030;-74
2023/03/05 05:55:51;;;;;;;33.53;20.77;;;7.00;57.20;;;;;;5015324;28;20412;-73
2023/03/05 05:58:17;;;;;;;40.33;21.98;;;7.00;57.20;;;;;;5015340;28;20036;-73
2023/03/05 06:00:43;;;;;;;35.22;20.95;;;7.00;57.10;;;;;;5015291;28;20030;-74
2023/03/05 06:03:09;;;;;;;31.70;18.00;;;7.10;57.20;;;;;;5033055;28;20036;-74
2023/03/05 06:05:35;;;;;;;37.10;21.67;;;7.10;57.20;;;;;;5024265;28;20581;-73
2023/03/05 06:08:00;;;;;;;37.63;21.08;;;7.10;57.10;;;;;;5030104;28;20032;-74
2023/03/05 06:10:26;;;;;;;35.97;19.65;;;7.10;57.10;;;;;;5032976;28;20060;-73
2023/03/05 06:12:52;;;;;;;38.53;21.42;;;7.20;57.10;;;;;;5031655;28;20072;-73
2023/03/05 06:15:18;;;;;;;38.13;20.20;;;7.20;57.10;;;;;;5032882;28;20021;-74
2023/03/05 06:17:46;;;;;;;34.88;22.08;;;7.20;57.10;;;;;;5034699;28;20489;-74
2023/03/05 06:20:12;;;;;;;41.63;21.15;;;7.20;57.10;;;;;;5033424;28;20072;-74
2023/03/05 06:22:39;;;;;;;36.30;20.92;;;7.20;57.10;;;;;;5032767;28;20076;-74
2023/03/05 06:25:06;;;;;;;39.47;21.90;;;7.20;57.20;;;;;;5032760;28;20036;-74
2023/03/05 06:27:33;;;;;;;36.83;20.65;;;7.10;58.00;;;;;;5032590;28;20130;-74
2023/03/05 06:29:59;;;;;;;39.08;22.27;;;7.10;57.30;;;;;;5032592;28;20083;-73
2023/03/05 06:32:24;;;;;;;35.53;20.95;;;7.10;57.20;;;;;;5032948;28;20037;-74
2023/03/05 06:34:50;;;;;;;35.78;21.27;;;7.10;57.20;;;;;;5031914;28;20156;-74
2023/03/05 06:37:16;;;;;;;39.97;21.05;;;7.10;57.10;;;;;;5027730;28;20025;-73
2023/03/05 06:39:42;;;;;;;35.53;21.38;;;7.10;57.10;;;;;;5032596;28;20025;-73
2023/03/05 06:42:08;;;;;;;37.95;22.63;;;7.10;57.10;;;;;;5014963;28;20510;-74
2023/03/05 06:44:38;;;;;;;40.67;22.10;;;7.20;57.00;;;;;;5032680;28;20021;-74
2023/03/05 06:47:05;;;;;;;37.15;20.50;;;7.20;57.00;;;;;;5032708;28;20025;-73
2023/03/05 06:49:31;;;;;;;48.35;21.80;;;7.20;56.90;;;;;;5032771;28;20105;-73
2023/03/05 06:51:57;;;;;;;41.65;21.90;;;7.20;57.00;;;;;;5032531;28;20025;-73
2023/03/05 06:54:22;;;;;;;34.58;20.45;;;7.20;56.70;;;;;;5032601;28;20028;-73
2023/03/05 06:56:48;;;;;;;39.10;21.40;;;7.30;56.70;;;;;;5032624;28;20018;-74
2023/03/05 06:59:15;;;;;;;32.53;19.02;;;7.30;56.60;;;;;;5032577;28;20017;-74
2023/03/05 07:01:42;;;;;;;33.85;19.48;;;7.30;56.50;;;;;;5032815;28;20029;-74
2023/03/05 07:04:09;;;;;;;39.20;20.98;;;7.30;56.60;;;;;;5034922;28;20026;-74
2023/03/05 07:06:37;;;;;;;42.80;23.05;;;7.40;56.50;;;;;;5036125;28;20421;-73
2023/03/05 07:09:05;;;;;;;40.60;21.40;;;7.30;56.20;;;;;;5043856;28;20017;-74
2023/03/05 07:11:31;;;;;;;35.10;21.27;;;7.30;56.50;;;;;;5039744;28;20029;-73
2023/03/05 07:13:57;;;;;;;40.33;22.63;;;7.30;56.60;;;;;;5034499;28;20025;-74
2023/03/05 07:16:26;;;;;;;39.70;19.60;;;7.30;56.40;;;;;;5034622;28;20504;-73
2023/03/05 07:18:52;;;;;;;37.65;21.25;;;7.30;56.40;;;;;;5035850;28;20072;-74
2023/03/05 07:21:21;;;;;;;41.65;23.23;;;7.40;56.40;;;;;;5035672;28;20033;-73
2023/03/05 07:23:48;;;;;;;46.83;23.73;;;7.40;56.40;;;;;;5035752;28;20099;-73
2023/03/05 07:26:14;;;;;;;33.60;19.83;;;7.40;56.30;;;;;;5044562;28;20502;-73
2023/03/05 07:28:40;;;;;;;41.70;22.33;;;7.40;56.30;;;;;;5051988;28;20033;-73
2023/03/05 07:31:10;;;;;;;41.47;21.98;;;7.40;56.30;;;;;;5055588;28;20378;-72
2023/03/05 07:33:37;;;;;;;41.05;20.08;;;7.40;56.10;;;;;;5054923;28;20154;-73
2023/03/05 07:36:06;;;;;;;33.83;19.98;;;7.40;56.10;;;;;;5050936;28;20029;-73
2023/03/05 07:38:31;;;;;;;36.92;20.58;;;7.50;56.20;;;;;;5055346;28;20025;-73
2023/03/05 07:41:08;;;;;;;38.22;19.98;;;7.50;56.20;;;;;;5055252;28;20021;-74
2023/03/05 07:43:35;;;;;;;38.97;21.67;;;7.60;56.20;;;;;;5055434;28;20597;-73
2023/03/05 07:46:04;;;;;;;41.03;21.70;;;7.60;56.00;;;;;;5055178;28;20017;-74
2023/03/05 07:48:30;;;;;;;32.75;18.75;;;7.50;55.90;;;;;;5055219;28;20020;-73
2023/03/05 07:51:04;;;;;;;39.70;23.33;;;7.60;56.10;;;;;;5055100;28;20378;-73
2023/03/05 07:53:30;;;;;;;38.45;20.42;;;7.60;56.00;;;;;;5055158;28;20044;-74
2023/03/05 07:55:56;;;;;;;43.67;21.95;;;7.70;56.00;;;;;;5055049;28;20025;-74
2023/03/05 07:58:22;;;;;;;41.88;22.38;;;7.80;56.00;;;;;;5055065;28;20138;-73
2023/03/05 08:00:48;;;;;;;44.83;22.45;;;7.80;55.70;;;;;;5040580;28;20029;-74
2023/03/05 08:03:14;;;;;;;44.13;22.83;;;7.80;55.60;;;;;;5055019;28;20100;-73
2023/03/05 08:05:40;;;;;;;38.13;22.17;;;7.90;55.50;;;;;;5043324;28;20101;-74
2023/03/05 08:08:07;;;;;;;38.85;20.05;;;7.90;55.50;;;;;;5035071;28;20017;-73
2023/03/05 08:10:34;;;;;;;35.92;20.80;;;7.90;55.60;;;;;;5054749;28;20081;-74
2023/03/05 08:12:59;;;;;;;50.47;23.38;;;8.00;55.50;;;;;;5054546;28;20017;-73
2023/03/05 08:15:25;;;;;;;38.88;21.52;;;8.00;55.30;;;;;;5037004;28;20082;-73
2023/03/05 08:17:51;;;;;;;45.33;23.02;;;8.00;55.20;;;;;;5054667;28;20052;-74
2023/03/05 08:20:18;;;;;;;38.92;22.52;;;8.10;55.10;;;;;;5054281;28;20078;-74
2023/03/05 08:22:44;;;;;;;41.72;22.98;;;8.00;55.00;;;;;;5054401;28;20021;-73
2023/03/05 08:25:11;;;;;;;42.00;20.83;;;8.00;55.00;;;;;;5054732;28;20025;-73
2023/03/05 08:27:42;;;;;;;54.28;23.42;;;8.10;55.20;;;;;;5054483;28;20044;-73
2023/03/05 08:30:11;;;;;;;39.50;22.13;;;8.10;55.20;;;;;;5054368;28;20470;-74
2023/03/05 08:32:37;;;;;;;44.63;23.95;;;8.10;55.00;;;;;;5054398;28;20486;-73
2023/03/05 08:35:03;;;;;;;41.05;22.30;;;8.10;55.00;;;;;;5053654;28;20033;-74
2023/03/05 08:37:29;;;;;;;43.65;23.33;;;8.10;55.00;;;;;;5054371;28;20033;-73
2023/03/05 08:39:55;;;;;;;43.38;25.73;;;8.20;55.00;;;;;;5054065;28;20063;-73
2023/03/05 08:42:22;;;;;;;50.13;25.52;;;8.20;55.00;;;;;;5054078;28;20056;-73
2023/03/05 08:44:48;;;;;;;44.67;23.25;;;8.30;55.20;;;;;;5054127;28;20029;-73
2023/03/05 08:47:14;;;;;;;48.72;24.95;;;8.30;55.10;;;;;;5054187;28;20017;-73
2023/03/05 08:49:40;;;;;;;48.05;23.42;;;8.40;55.00;;;;;;5053943;28;20017;-74
2023/03/05 08:52:06;;;;;;;44.17;23.17;;;8.40;54.70;;;;;;5053897;28;20021;-74
2023/03/05 08:54:33;;;;;;;47.05;22.98;;;8.50;54.70;;;;;;5053964;28;20098;-74
2023/03/05 08:56:59;;;;;;;50.50;24.75;;;8.50;54.70;;;;;;5053843;28;20528;-73
2023/03/05 08:59:24;;;;;;;46.00;24.40;;;8.60;54.70;;;;;;5053879;28;20033;-74
2023/03/05 09:01:50;;;;;;;42.55;23.13;;;8.70;54.50;;;;;;5053773;28;20100;-74
2023/03/05 09:04:16;;;;;;;46.15;23.33;;;8.80;54.40;;;;;;5052995;28;20017;-74
2023/03/05 09:06:42;;;;;;;49.03;24.33;;;8.90;54.30;;;;;;5053717;28;20025;-74
2023/03/05 09:09:08;;;;;;;41.17;22.73;;;8.90;54.00;;;;;;5035793;28;20107;-74
2023/03/05 09:11:35;;;;;;;48.42;23.05;;;9.10;53.70;;;;;;5053797;28;20403;-74
2023/03/05 09:14:06;;;;;;;41.15;22.35;;;9.20;53.70;;;;;;5053593;28;20029;-74
2023/03/05 09:16:32;;;;;;;45.28;24.23;;;9.20;53.30;;;;;;5035762;28;20032;-74
2023/03/05 09:18:58;;;;;;;40.50;22.20;;;9.30;52.70;;;;;;5053469;28;20029;-74
2023/03/05 09:21:24;;;;;;;48.22;22.50;;;9.30;52.70;;;;;;5035453;28;20025;-74
2023/03/05 09:23:51;;;;;;;43.70;23.17;;;9.40;52.50;;;;;;5053462;28;20378;-74
2023/03/05 09:26:20;;;;;;;43.08;23.63;;;9.40;52.30;;;;;;5052687;28;20044;-74
2023/03/05 09:28:47;;;;;;;37.08;21.55;;;9.50;52.10;;;;;;5034964;28;20453;-74
2023/03/05 09:31:12;;;;;;;45.50;22.30;;;9.50;52.10;;;;;;5053435;28;20039;-74
2023/03/05 09:33:40;;;;;;;38.55;21.08;;;9.60;51.80;;;;;;5034685;28;20116;-74
2023/03/05 09:36:18;;;;;;;49.78;22.85;;;9.60;52.10;;;;;;5053145;28;20525;-74
2023/03/05 09:38:44;;;;;;;38.67;20.55;;;9.70;51.70;;;;;;5053345;28;20056;-74
2023/03/05 09:41:29;;;;;;;40.35;20.77;;;9.80;51.90;;;;;;5053061;28;20060;-74
2023/03/05 09:44:13;;;;;;;41.20;21.75;;;10.00;51.60;;;;;;5053073;28;20028;-74
2023/03/05 09:46:52;;;;;;;39.55;20.65;;;10.00;51.20;;;;;;5053206;28;20087;-74
2023/03/05 09:49:42;;;;;;;39.65;20.65;;;10.10;51.10;;;;;;5035392;28;20021;-74
2023/03/05 09:52:21;;;;;;;38.47;20.75;;;10.10;50.70;;;;;;5053028;28;20374;-74
2023/03/05 09:54:53;;;;;;;41.08;21.90;;;10.20;50.60;;;;;;5035312;28;20021;-74
2023/03/05 09:57:24;;;;;;;39.20;21.20;;;10.20;50.00;;;;;;5053238;28;20375;-74
2023/03/05 09:59:56;;;;;;;37.78;20.30;;;10.20;49.80;;;;;;5053069;28;20021;-74
2023/03/05 10:02:28;;;;;;;41.42;22.73;;;10.30;49.80;;;;;;5019401;28;20056;-74
2023/03/05 10:05:02;;;;;;;42.78;20.67;;;10.30;49.60;;;;;;5052224;28;20082;-74
2023/03/05 10:07:30;;;;;;;;;;;10.40;49.90;;;;;;5040256;23;20183;-74
2023/03/05 10:09:56;;;;;;;43.08;21.35;;;10.40;50.40;;;;;;5029847;28;19917;-74
2023/03/05 10:12:55;;;;;;;41.90;21.85;;;10.50;49.50;;;;;;5047384;28;20439;-74
2023/03/05 10:15:50;;;;;;;43.40;22.05;;;10.60;49.30;;;;;;5051156;28;20021;-74
2023/03/05 10:18:32;;;;;;;35.72;20.45;;;10.70;49.40;;;;;;5042177;28;20028;-74
2023/03/05 10:21:08;;;;;;;40.50;21.23;;;10.80;49.40;;;;;;5046017;28;20350;-74
2023/03/05 10:23:55;;;;;;;39.33;19.95;;;10.80;49.30;;;;;;5048746;28;20031;-73
2023/03/05 10:26:45;;;;;;;32.80;18.75;;;10.90;48.70;;;;;;5026845;28;20478;-73
2023/03/05 10:29:29;;;;;;;36.45;19.55;;;10.90;48.10;;;;;;5042863;28;20017;-73
2023/03/05 10:31:58;;;;;;;38.28;20.30;;;11.00;48.30;;;;;;5053191;28;20023;-73
2023/03/05 10:34:45;;;;;;;32.65;18.15;;;11.00;47.50;;;;;;5050675;28;20052;-73
2023/03/05 10:37:19;;;;;;;40.55;20.48;;;11.10;47.90;;;;;;5049754;28;20036;-73
2023/03/05 10:39:59;;;;;;;38.85;20.42;;;11.20;47.60;;;;;;5052019;28;20025;-73
2023/03/05 10:42:27;;;;;;;37.22;20.42;;;11.30;47.30;;;;;;5055139;28;20017;-73
2023/03/05 10:45:11;;;;;;;39.53;19.50;;;11.30;47.10;;;;;;5058372;28;20029;-73
2023/03/05 10:47:47;;;;;;;37.23;19.73;;;11.30;47.00;;;;;;5064311;28;20147;-72
2023/03/05 10:50:17;;;;;;;31.80;18.15;;;11.40;46.30;;;;;;5071719;28;20687;-74
2023/03/05 10:52:47;;;;;;;31.20;18.65;;;11.40;46.60;;;;;;5071855;28;20477;-73
2023/03/05 10:55:19;;;;;;;34.58;19.08;;;11.50;46.50;;;;;;5063920;28;20035;-73
2023/03/05 10:57:46;;;;;;;41.85;19.40;;;11.60;46.10;;;;;;5050463;28;20020;-73
2023/03/05 11:00:24;;;;;;;35.97;20.00;;;11.60;45.70;;;;;;5047774;28;20588;-73
2023/03/05 11:02:58;;;;;;;31.30;17.70;;;11.50;45.20;;;;;;5045463;28;20158;-73
2023/03/05 11:05:49;;;;;;;31.83;17.35;;;11.50;45.60;;;;;;5071039;28;20029;-73
2023/03/05 11:08:29;;;;;;;35.08;18.55;;;11.60;45.50;;;;;;5069812;28;20040;-73
2023/03/05 11:11:15;;;;;;;36.58;19.13;;;11.70;45.60;;;;;;5068264;28;20027;-73
2023/03/05 11:13:51;;;;;;;31.35;17.60;;;11.70;45.00;;;;;;5065510;28;20074;-73
2023/03/05 11:16:48;;;;;;;34.47;18.70;;;11.80;45.70;;;;;;5063592;28;20531;-73
2023/03/05 11:19:16;;;;;;;30.02;16.23;;;11.80;45.10;;;;;;5065521;28;20032;-73
2023/03/05 11:21:44;;;;;;;28.25;16.38;;;11.90;45.20;;;;;;5050476;28;20028;-73
2023/03/05 11:24:18;;;;;;;33.50;18.73;;;12.00;45.00;;;;;;5063521;28;20547;-74
2023/03/05 11:26:55;;;;;;;35.25;17.67;;;12.10;44.60;;;;;;5065609;28;20017;-73
2023/03/05 11:29:28;;;;;;;31.95;17.42;;;12.00;44.60;;;;;;5065320;28;20024;-73
2023/03/05 11:31:54;;;;;;;36.38;18.02;;;12.10;44.20;;;;;;5067534;28;20032;-73
2023/03/05 11:34:24;;;;;;;30.45;16.85;;;12.10;44.20;;;;;;5068922;28;20428;-73
2023/03/05 11:36:57;;;;;;;31.08;16.75;;;12.10;43.80;;;;;;5068648;28;20029;-73
2023/03/05 11:39:29;;;;;;;29.48;15.27;;;12.10;44.00;;;;;;5072817;28;20021;-74
2023/03/05 11:41:58;;;;;;;35.10;16.30;;;12.10;44.10;;;;;;5070945;28;20085;-74
2023/03/05 11:44:33;;;;;;;27.73;15.68;;;12.10;43.70;;;;;;5063860;28;20025;-73
2023/03/05 11:47:06;;;;;;;28.45;15.00;;;12.20;43.80;;;;;;5062432;28;20021;-73
2023/03/05 11:49:45;;;;;;;26.40;14.20;;;12.30;43.60;;;;;;5056987;28;20428;-73
2023/03/05 11:52:16;;;;;;;22.00;12.77;;;12.30;43.50;;;;;;5069122;28;20137;-73
2023/03/05 11:55:13;;;;;;;25.35;14.13;;;12.30;43.30;;;;;;5066707;28;20036;-73
2023/03/05 11:57:59;;;;;;;25.85;15.35;;;12.30;43.30;;;;;;5058458;28;20445;-74
2023/03/05 12:00:29;;;;;;;28.95;15.88;;;12.40;43.50;;;;;;5063541;28;20024;-73
2023/03/05 12:02:58;;;;;;;29.92;15.65;;;12.40;43.00;;;;;;5069897;28;20028;-73
2023/03/05 12:05:26;;;;;;;28.00;14.82;;;12.40;43.10;;;;;;5065141;28;20044;-73
2023/03/05 12:07:59;;;;;;;29.35;15.63;;;12.50;43.30;;;;;;5069379;28;20060;-73
2023/03/05 12:10:25;;;;;;;23.45;13.50;;;12.50;42.80;;;;;;5061746;28;20103;-73
2023/03/05 12:13:06;;;;;;;32.78;15.25;;;12.60;43.20;;;;;;5063381;28;20113;-73
2023/03/05 12:15:47;;;;;;;32.33;15.60;;;12.50;42.30;;;;;;5065681;28;20021;-73
2023/03/05 12:18:36;;;;;;;28.02;14.57;;;12.50;42.00;;;;;;5068245;28;20036;-73
2023/03/05 12:21:25;;;;;;;27.40;14.70;;;12.40;42.00;;;;;;5062864;28;20020;-73
2023/03/05 12:24:00;;;;;;;24.08;13.68;;;12.30;41.80;;;;;;5062730;28;20025;-73
2023/03/05 12:26:51;;;;;;;26.60;15.13;;;12.20;42.50;;;;;;5064769;28;20151;-73
2023/03/05 12:29:45;;;;;;;33.13;15.80;;;12.30;42.90;;;;;;5060914;28;20052;-73
2023/03/05 12:32:24;;;;;;;27.60;15.20;;;12.20;42.90;;;;;;5066503;28;20017;-73
2023/03/05 12:34:59;;;;;;;27.05;14.98;;;12.20;42.70;;;;;;5063485;28;20016;-73
2023/03/05 12:37:25;;;;;;;26.40;14.90;;;12.20;43.10;;;;;;5044954;28;20032;-73
2023/03/05 12:40:19;;;;;;;29.65;14.95;;;12.20;42.80;;;;;;5066013;28;20358;-73
2023/03/05 12:42:53;;;;;;;25.45;14.05;;;12.20;42.90;;;;;;5056995;28;20045;-74
2023/03/05 12:45:39;;;;;;;;;;;12.20;42.80;;;;;;5062460;28;20017;-73